sensor_id;sensor_type;location;lat;lon;timestamp;P1;durP1;ratioP1;P2;durP2;ratioP2
19364;SDS011;9818;48.382;10.850;2023-12-07T00:01:28;2.33;;;1.50;;
19364;SDS011;9818;48.382;10.850;2023-12-07T00:04:02;1.80;;;1.50;;
19364;SDS011;9818;48.382;10.850;2023-12-07T00:06:31;2.90;;;1.80;;
19364;SDS011;9818;48.382;10.850;2023-12-07T00:08:59;3.00;;;1.80;;
19364;SDS011;9818;48.382;10.850;2023-12-07T00:11:29;2.17;;;1.57;;
19364;SDS011;9818;48.382;10.850;2023-12-07T00:13:58;3.43;;;1.80;;
19364;SDS011;9818;48.382;10.850;2023-12-07T00:16:27;6.37;;;1.77;;
19364;SDS011;9818;48.382;10.850;2023-12-07T00:18:56;4.47;;;1.90;;
19364;SDS011;9818;48.382;10.850;2023-12-07T00:21:27;4.43;;;1.70;;
19364;SDS011;9818;48.382;10.850;2023-12-07T00:23:56;4.40;;;1.63;;
19364;SDS011;9818;48.382;10.850;2023-12-07T00:26:26;3.40;;;2.07;;
19364;SDS011;9818;48.382;10.850;2023-12-07T00:28:55;2.57;;;2.03;;
19364;SDS011;9818;48.382;10.850;2023-12-07T00:31:23;2.37;;;1.60;;
19364;SDS011;9818;48.382;10.850;2023-12-07T00:33:52;5.43;;;1.60;;
19364;SDS011;9818;48.382;10.850;2023-12-07T00:36:21;2.73;;;1.70;;
19364;SDS011;9818;48.382;10.850;2023-12-07T00:38:54;2.20;;;1.60;;
19364;SDS011;9818;48.382;10.850;2023-12-07T00:41:22;4.70;;;1.70;;
19364;SDS011;9818;48.382;10.850;2023-12-07T00:43:51;1.83;;;1.40;;
19364;SDS011;9818;48.382;10.850;2023-12-07T00:46:20;2.13;;;1.63;;
19364;SDS011;9818;48.382;10.850;2023-12-07T00:48:49;3.53;;;1.80;;
19364;SDS011;9818;48.382;10.850;2023-12-07T00:51:17;2.13;;;1.93;;
19364;SDS011;9818;48.382;10.850;2023-12-07T00:53:46;2.50;;;2.07;;
19364;SDS011;9818;48.382;10.850;2023-12-07T00:56:18;1.90;;;1.60;;
19364;SDS011;9818;48.382;10.850;2023-12-07T00:58:46;1.50;;;1.37;;
19364;SDS011;9818;48.382;10.850;2023-12-07T01:01:15;1.50;;;1.40;;
19364;SDS011;9818;48.382;10.850;2023-12-07T01:03:44;2.13;;;1.77;;
19364;SDS011;9818;48.382;10.850;2023-12-07T01:06:13;2.50;;;1.70;;
19364;SDS011;9818;48.382;10.850;2023-12-07T01:08:42;2.13;;;1.60;;
19364;SDS011;9818;48.382;10.850;2023-12-07T01:11:11;2.27;;;1.77;;
19364;SDS011;9818;48.382;10.850;2023-12-07T01:13:42;2.03;;;1.70;;
19364;SDS011;9818;48.382;10.850;2023-12-07T01:16:11;2.13;;;1.60;;
19364;SDS011;9818;48.382;10.850;2023-12-07T01:18:40;2.10;;;1.73;;
19364;SDS011;9818;48.382;10.850;2023-12-07T01:21:09;1.60;;;1.50;;
19364;SDS011;9818;48.382;10.850;2023-12-07T01:23:38;2.03;;;1.40;;
19364;SDS011;9818;48.382;10.850;2023-12-07T01:26:07;1.97;;;1.77;;
19364;SDS011;9818;48.382;10.850;2023-12-07T01:28:36;2.20;;;1.60;;
19364;SDS011;9818;48.382;10.850;2023-12-07T01:31:08;1.97;;;1.70;;
19364;SDS011;9818;48.382;10.850;2023-12-07T01:33:36;3.53;;;1.60;;
19364;SDS011;9818;48.382;10.850;2023-12-07T01:36:06;1.57;;;1.47;;
19364;SDS011;9818;48.382;10.850;2023-12-07T01:38:35;2.67;;;1.70;;
19364;SDS011;9818;48.382;10.850;2023-12-07T01:41:03;1.93;;;1.50;;
19364;SDS011;9818;48.382;10.850;2023-12-07T01:43:32;2.07;;;1.70;;
19364;SDS011;9818;48.382;10.850;2023-12-07T01:46:01;3.27;;;1.93;;
19364;SDS011;9818;48.382;10.850;2023-12-07T01:48:33;1.97;;;1.80;;
19364;SDS011;9818;48.382;10.850;2023-12-07T01:51:02;1.83;;;1.53;;
19364;SDS011;9818;48.382;10.850;2023-12-07T01:53:32;1.60;;;1.50;;
19364;SDS011;9818;48.382;10.850;2023-12-07T01:56:01;1.53;;;1.43;;
19364;SDS011;9818;48.382;10.850;2023-12-07T01:58:30;1.93;;;1.67;;
19364;SDS011;9818;48.382;10.850;2023-12-07T02:00:59;3.10;;;1.67;;
19364;SDS011;9818;48.382;10.850;2023-12-07T02:03:29;1.50;;;1.40;;
19364;SDS011;9818;48.382;10.850;2023-12-07T02:06:01;1.50;;;1.40;;
19364;SDS011;9818;48.382;10.850;2023-12-07T02:08:31;2.30;;;1.60;;
19364;SDS011;9818;48.382;10.850;2023-12-07T02:11:00;2.17;;;1.60;;
19364;SDS011;9818;48.382;10.850;2023-12-07T02:13:29;1.80;;;1.60;;
19364;SDS011;9818;48.382;10.850;2023-12-07T02:15:58;1.70;;;1.60;;
19364;SDS011;9818;48.382;10.850;2023-12-07T02:18:34;1.50;;;1.33;;
19364;SDS011;9818;48.382;10.850;2023-12-07T02:21:12;1.83;;;1.40;;
19364;SDS011;9818;48.382;10.850;2023-12-07T02:23:44;2.33;;;1.70;;
19364;SDS011;9818;48.382;10.850;2023-12-07T02:26:15;2.00;;;1.60;;
19364;SDS011;9818;48.382;10.850;2023-12-07T02:28:50;1.70;;;1.60;;
19364;SDS011;9818;48.382;10.850;2023-12-07T02:31:20;2.00;;;1.80;;
19364;SDS011;9818;48.382;10.850;2023-12-07T02:33:48;5.43;;;1.63;;
19364;SDS011;9818;48.382;10.850;2023-12-07T02:36:18;1.77;;;1.60;;
19364;SDS011;9818;48.382;10.850;2023-12-07T02:38:50;4.63;;;2.33;;
19364;SDS011;9818;48.382;10.850;2023-12-07T02:41:21;3.37;;;1.73;;
19364;SDS011;9818;48.382;10.850;2023-12-07T02:43:53;1.93;;;1.70;;
19364;SDS011;9818;48.382;10.850;2023-12-07T02:46:22;8.47;;;2.13;;
19364;SDS011;9818;48.382;10.850;2023-12-07T02:48:51;2.20;;;1.80;;
19364;SDS011;9818;48.382;10.850;2023-12-07T02:51:20;1.90;;;1.50;;
19364;SDS011;9818;48.382;10.850;2023-12-07T02:53:49;1.67;;;1.57;;
19364;SDS011;9818;48.382;10.850;2023-12-07T02:56:18;7.10;;;1.73;;
19364;SDS011;9818;48.382;10.850;2023-12-07T02:58:46;2.13;;;1.40;;
19364;SDS011;9818;48.382;10.850;2023-12-07T03:01:18;1.80;;;1.50;;
19364;SDS011;9818;48.382;10.850;2023-12-07T03:03:47;2.93;;;1.60;;
19364;SDS011;9818;48.382;10.850;2023-12-07T03:06:15;2.10;;;1.87;;
19364;SDS011;9818;48.382;10.850;2023-12-07T03:08:45;1.80;;;1.60;;
19364;SDS011;9818;48.382;10.850;2023-12-07T03:11:14;1.90;;;1.70;;
19364;SDS011;9818;48.382;10.850;2023-12-07T03:13:43;2.07;;;1.60;;
19364;SDS011;9818;48.382;10.850;2023-12-07T03:16:12;2.50;;;1.50;;
19364;SDS011;9818;48.382;10.850;2023-12-07T03:18:43;1.77;;;1.50;;
19364;SDS011;9818;48.382;10.850;2023-12-07T03:21:12;1.60;;;1.50;;
19364;SDS011;9818;48.382;10.850;2023-12-07T03:23:41;3.37;;;1.70;;
19364;SDS011;9818;48.382;10.850;2023-12-07T03:26:10;2.70;;;1.40;;
19364;SDS011;9818;48.382;10.850;2023-12-07T03:28:39;2.10;;;1.90;;
19364;SDS011;9818;48.382;10.850;2023-12-07T03:31:07;3.47;;;1.50;;
19364;SDS011;9818;48.382;10.850;2023-12-07T03:33:36;4.10;;;1.73;;
19364;SDS011;9818;48.382;10.850;2023-12-07T03:36:10;3.37;;;1.70;;
19364;SDS011;9818;48.382;10.850;2023-12-07T03:38:39;1.60;;;1.50;;
19364;SDS011;9818;48.382;10.850;2023-12-07T03:41:08;1.70;;;1.50;;
19364;SDS011;9818;48.382;10.850;2023-12-07T03:43:37;1.60;;;1.20;;
19364;SDS011;9818;48.382;10.850;2023-12-07T03:46:06;2.00;;;1.57;;
19364;SDS011;9818;48.382;10.850;2023-12-07T03:48:35;3.10;;;1.63;;
19364;SDS011;9818;48.382;10.850;2023-12-07T03:51:04;1.63;;;1.40;;
19364;SDS011;9818;48.382;10.850;2023-12-07T03:53:36;3.97;;;1.40;;
19364;SDS011;9818;48.382;10.850;2023-12-07T03:56:05;2.10;;;1.60;;
19364;SDS011;9818;48.382;10.850;2023-12-07T03:58:34;1.93;;;1.43;;
19364;SDS011;9818;48.382;10.850;2023-12-07T04:01:03;1.73;;;1.47;;
19364;SDS011;9818;48.382;10.850;2023-12-07T04:03:32;1.70;;;1.60;;
19364;SDS011;9818;48.382;10.850;2023-12-07T04:06:01;1.50;;;1.40;;
19364;SDS011;9818;48.382;10.850;2023-12-07T04:08:32;4.10;;;1.40;;
19364;SDS011;9818;48.382;10.850;2023-12-07T04:11:01;1.90;;;1.70;;
19364;SDS011;9818;48.382;10.850;2023-12-07T04:13:30;1.50;;;1.40;;
19364;SDS011;9818;48.382;10.850;2023-12-07T04:15:59;1.73;;;1.43;;
19364;SDS011;9818;48.382;10.850;2023-12-07T04:18:28;1.60;;;1.50;;
19364;SDS011;9818;48.382;10.850;2023-12-07T04:20:57;2.33;;;1.80;;
19364;SDS011;9818;48.382;10.850;2023-12-07T04:23:26;3.07;;;1.87;;
19364;SDS011;9818;48.382;10.850;2023-12-07T04:25:57;1.57;;;1.33;;
19364;SDS011;9818;48.382;10.850;2023-12-07T04:28:26;2.20;;;1.60;;
19364;SDS011;9818;48.382;10.850;2023-12-07T04:30:55;1.70;;;1.60;;
19364;SDS011;9818;48.382;10.850;2023-12-07T04:33:24;1.57;;;1.47;;
19364;SDS011;9818;48.382;10.850;2023-12-07T04:35:53;1.90;;;1.40;;
19364;SDS011;9818;48.382;10.850;2023-12-07T04:38:22;1.73;;;1.53;;
19364;SDS011;9818;48.382;10.850;2023-12-07T04:40:50;1.70;;;1.60;;
19364;SDS011;9818;48.382;10.850;2023-12-07T04:43:22;1.57;;;1.47;;
19364;SDS011;9818;48.382;10.850;2023-12-07T04:45:50;1.70;;;1.50;;
19364;SDS011;9818;48.382;10.850;2023-12-07T04:48:19;2.40;;;1.70;;
19364;SDS011;9818;48.382;10.850;2023-12-07T04:50:48;1.60;;;1.50;;
19364;SDS011;9818;48.382;10.850;2023-12-07T04:53:17;2.10;;;1.60;;
19364;SDS011;9818;48.382;10.850;2023-12-07T04:55:45;1.90;;;1.70;;
19364;SDS011;9818;48.382;10.850;2023-12-07T04:58:15;1.40;;;1.30;;
19364;SDS011;9818;48.382;10.850;2023-12-07T05:00:47;2.30;;;1.70;;
19364;SDS011;9818;48.382;10.850;2023-12-07T05:03:15;1.50;;;1.40;;
19364;SDS011;9818;48.382;10.850;2023-12-07T05:05:44;1.60;;;1.50;;
19364;SDS011;9818;48.382;10.850;2023-12-07T05:08:13;1.60;;;1.50;;
19364;SDS011;9818;48.382;10.850;2023-12-07T05:10:43;1.60;;;1.40;;
19364;SDS011;9818;48.382;10.850;2023-12-07T05:13:12;2.30;;;1.47;;
19364;SDS011;9818;48.382;10.850;2023-12-07T05:15:40;1.40;;;1.30;;
19364;SDS011;9818;48.382;10.850;2023-12-07T05:18:14;2.00;;;1.40;;
19364;SDS011;9818;48.382;10.850;2023-12-07T05:20:43;1.50;;;1.40;;
19364;SDS011;9818;48.382;10.850;2023-12-07T05:23:12;1.67;;;1.57;;
19364;SDS011;9818;48.382;10.850;2023-12-07T05:25:40;1.63;;;1.53;;
19364;SDS011;9818;48.382;10.850;2023-12-07T05:28:10;1.60;;;1.50;;
19364;SDS011;9818;48.382;10.850;2023-12-07T05:30:38;1.80;;;1.60;;
19364;SDS011;9818;48.382;10.850;2023-12-07T05:33:07;1.47;;;1.37;;
19364;SDS011;9818;48.382;10.850;2023-12-07T05:35:38;1.57;;;1.40;;
19364;SDS011;9818;48.382;10.850;2023-12-07T05:38:07;1.53;;;1.40;;
19364;SDS011;9818;48.382;10.850;2023-12-07T05:40:36;1.83;;;1.60;;
19364;SDS011;9818;48.382;10.850;2023-12-07T05:43:05;2.73;;;1.70;;
19364;SDS011;9818;48.382;10.850;2023-12-07T05:45:34;1.77;;;1.50;;
19364;SDS011;9818;48.382;10.850;2023-12-07T05:48:02;2.10;;;1.53;;
19364;SDS011;9818;48.382;10.850;2023-12-07T05:50:31;1.67;;;1.57;;
19364;SDS011;9818;48.382;10.850;2023-12-07T05:53:07;1.83;;;1.60;;
19364;SDS011;9818;48.382;10.850;2023-12-07T05:55:36;1.70;;;1.60;;
19364;SDS011;9818;48.382;10.850;2023-12-07T05:58:06;1.87;;;1.73;;
19364;SDS011;9818;48.382;10.850;2023-12-07T06:00:35;2.33;;;1.47;;
19364;SDS011;9818;48.382;10.850;2023-12-07T06:03:05;1.67;;;1.57;;
19364;SDS011;9818;48.382;10.850;2023-12-07T06:05:36;1.70;;;1.60;;
19364;SDS011;9818;48.382;10.850;2023-12-07T06:08:08;1.40;;;1.30;;
19364;SDS011;9818;48.382;10.850;2023-12-07T06:10:37;2.30;;;1.33;;
19364;SDS011;9818;48.382;10.850;2023-12-07T06:13:06;1.60;;;1.47;;
19364;SDS011;9818;48.382;10.850;2023-12-07T06:15:35;1.93;;;1.50;;
19364;SDS011;9818;48.382;10.850;2023-12-07T06:18:04;1.70;;;1.60;;
19364;SDS011;9818;48.382;10.850;2023-12-07T06:20:33;1.47;;;1.37;;
19364;SDS011;9818;48.382;10.850;2023-12-07T06:23:02;1.43;;;1.33;;
19364;SDS011;9818;48.382;10.850;2023-12-07T06:25:34;2.03;;;1.60;;
19364;SDS011;9818;48.382;10.850;2023-12-07T06:28:03;1.60;;;1.50;;
19364;SDS011;9818;48.382;10.850;2023-12-07T06:30:32;1.73;;;1.53;;
19364;SDS011;9818;48.382;10.850;2023-12-07T06:33:01;1.50;;;1.40;;
19364;SDS011;9818;48.382;10.850;2023-12-07T06:35:30;1.77;;;1.50;;
19364;SDS011;9818;48.382;10.850;2023-12-07T06:37:58;1.63;;;1.50;;
19364;SDS011;9818;48.382;10.850;2023-12-07T06:40:27;1.70;;;1.50;;
19364;SDS011;9818;48.382;10.850;2023-12-07T06:42:59;1.77;;;1.67;;
19364;SDS011;9818;48.382;10.850;2023-12-07T06:45:28;1.40;;;1.30;;
19364;SDS011;9818;48.382;10.850;2023-12-07T06:47:56;1.50;;;1.40;;
19364;SDS011;9818;48.382;10.850;2023-12-07T06:50:26;1.77;;;1.40;;
19364;SDS011;9818;48.382;10.850;2023-12-07T06:52:55;1.50;;;1.40;;
19364;SDS011;9818;48.382;10.850;2023-12-07T06:55:27;1.57;;;1.47;;
19364;SDS011;9818;48.382;10.850;2023-12-07T06:57:59;1.60;;;1.50;;
19364;SDS011;9818;48.382;10.850;2023-12-07T07:00:28;1.40;;;1.30;;
19364;SDS011;9818;48.382;10.850;2023-12-07T07:02:58;2.07;;;1.67;;
19364;SDS011;9818;48.382;10.850;2023-12-07T07:05:26;2.60;;;1.40;;
19364;SDS011;9818;48.382;10.850;2023-12-07T07:07:55;1.77;;;1.67;;
19364;SDS011;9818;48.382;10.850;2023-12-07T07:10:24;1.80;;;1.70;;
19364;SDS011;9818;48.382;10.850;2023-12-07T07:12:53;1.60;;;1.50;;
19364;SDS011;9818;48.382;10.850;2023-12-07T07:15:24;1.97;;;1.77;;
19364;SDS011;9818;48.382;10.850;2023-12-07T07:17:53;1.50;;;1.40;;
19364;SDS011;9818;48.382;10.850;2023-12-07T07:20:22;2.23;;;1.70;;
19364;SDS011;9818;48.382;10.850;2023-12-07T07:22:51;1.70;;;1.60;;
19364;SDS011;9818;48.382;10.850;2023-12-07T07:25:19;3.70;;;1.57;;
19364;SDS011;9818;48.382;10.850;2023-12-07T07:27:48;2.73;;;1.70;;
19364;SDS011;9818;48.382;10.850;2023-12-07T07:30:17;3.60;;;1.77;;
19364;SDS011;9818;48.382;10.850;2023-12-07T07:32:48;3.87;;;1.80;;
19364;SDS011;9818;48.382;10.850;2023-12-07T07:35:17;4.43;;;1.63;;
19364;SDS011;9818;48.382;10.850;2023-12-07T07:37:46;1.70;;;1.60;;
19364;SDS011;9818;48.382;10.850;2023-12-07T07:40:15;2.33;;;1.50;;
19364;SDS011;9818;48.382;10.850;2023-12-07T07:42:44;3.60;;;1.60;;
19364;SDS011;9818;48.382;10.850;2023-12-07T07:45:13;2.70;;;1.67;;
19364;SDS011;9818;48.382;10.850;2023-12-07T07:47:41;2.10;;;1.60;;
19364;SDS011;9818;48.382;10.850;2023-12-07T07:50:13;5.67;;;1.90;;
19364;SDS011;9818;48.382;10.850;2023-12-07T07:52:42;5.20;;;1.90;;
19364;SDS011;9818;48.382;10.850;2023-12-07T07:55:11;5.87;;;2.00;;
19364;SDS011;9818;48.382;10.850;2023-12-07T07:57:40;4.17;;;1.90;;
19364;SDS011;9818;48.382;10.850;2023-12-07T08:00:10;4.43;;;2.00;;
19364;SDS011;9818;48.382;10.850;2023-12-07T08:02:40;4.03;;;1.53;;
19364;SDS011;9818;48.382;10.850;2023-12-07T08:05:09;3.23;;;1.53;;
19364;SDS011;9818;48.382;10.850;2023-12-07T08:07:41;4.23;;;1.60;;
19364;SDS011;9818;48.382;10.850;2023-12-07T08:10:10;5.50;;;2.00;;
19364;SDS011;9818;48.382;10.850;2023-12-07T08:12:39;6.23;;;1.90;;
19364;SDS011;9818;48.382;10.850;2023-12-07T08:15:09;3.93;;;1.90;;
19364;SDS011;9818;48.382;10.850;2023-12-07T08:17:39;4.53;;;1.80;;
19364;SDS011;9818;48.382;10.850;2023-12-07T08:20:09;3.27;;;1.97;;
19364;SDS011;9818;48.382;10.850;2023-12-07T08:22:43;3.47;;;2.00;;
19364;SDS011;9818;48.382;10.850;2023-12-07T08:25:12;4.27;;;1.63;;
19364;SDS011;9818;48.382;10.850;2023-12-07T08:27:42;3.50;;;1.73;;
19364;SDS011;9818;48.382;10.850;2023-12-07T08:30:12;2.57;;;1.80;;
19364;SDS011;9818;48.382;10.850;2023-12-07T08:32:41;7.17;;;6.47;;
19364;SDS011;9818;48.382;10.850;2023-12-07T08:35:10;8.77;;;7.87;;
19364;SDS011;9818;48.382;10.850;2023-12-07T08:37:41;8.50;;;5.10;;
19364;SDS011;9818;48.382;10.850;2023-12-07T08:40:10;5.50;;;3.83;;
19364;SDS011;9818;48.382;10.850;2023-12-07T08:42:40;4.73;;;3.50;;
19364;SDS011;9818;48.382;10.850;2023-12-07T08:45:11;4.20;;;3.10;;
19364;SDS011;9818;48.382;10.850;2023-12-07T08:47:40;5.43;;;3.53;;
19364;SDS011;9818;48.382;10.850;2023-12-07T08:50:09;3.67;;;2.80;;
19364;SDS011;9818;48.382;10.850;2023-12-07T08:52:38;4.27;;;3.07;;
19364;SDS011;9818;48.382;10.850;2023-12-07T08:55:10;3.77;;;3.13;;
19364;SDS011;9818;48.382;10.850;2023-12-07T08:57:40;3.90;;;2.87;;
19364;SDS011;9818;48.382;10.850;2023-12-07T09:00:09;3.97;;;2.83;;
19364;SDS011;9818;48.382;10.850;2023-12-07T09:02:38;4.03;;;2.60;;
19364;SDS011;9818;48.382;10.850;2023-12-07T09:05:07;4.23;;;2.80;;
19364;SDS011;9818;48.382;10.850;2023-12-07T09:07:37;3.60;;;2.60;;
19364;SDS011;9818;48.382;10.850;2023-12-07T09:10:06;3.43;;;2.40;;
19364;SDS011;9818;48.382;10.850;2023-12-07T09:12:38;4.10;;;2.30;;
19364;SDS011;9818;48.382;10.850;2023-12-07T09:15:07;2.97;;;2.10;;
19364;SDS011;9818;48.382;10.850;2023-12-07T09:17:37;3.30;;;2.20;;
19364;SDS011;9818;48.382;10.850;2023-12-07T09:20:07;4.83;;;2.63;;
19364;SDS011;9818;48.382;10.850;2023-12-07T09:22:39;2.40;;;2.20;;
19364;SDS011;9818;48.382;10.850;2023-12-07T09:25:12;6.87;;;2.43;;
19364;SDS011;9818;48.382;10.850;2023-12-07T09:27:43;5.70;;;2.50;;
19364;SDS011;9818;48.382;10.850;2023-12-07T09:30:13;4.43;;;2.30;;
19364;SDS011;9818;48.382;10.850;2023-12-07T09:32:42;3.10;;;2.33;;
19364;SDS011;9818;48.382;10.850;2023-12-07T09:35:11;4.13;;;2.03;;
19364;SDS011;9818;48.382;10.850;2023-12-07T09:37:44;3.17;;;1.90;;
19364;SDS011;9818;48.382;10.850;2023-12-07T09:40:19;2.60;;;2.00;;
19364;SDS011;9818;48.382;10.850;2023-12-07T09:42:50;4.47;;;2.17;;
19364;SDS011;9818;48.382;10.850;2023-12-07T09:45:19;3.53;;;2.20;;
19364;SDS011;9818;48.382;10.850;2023-12-07T09:47:49;6.50;;;2.50;;
19364;SDS011;9818;48.382;10.850;2023-12-07T09:50:19;3.10;;;1.90;;
19364;SDS011;9818;48.382;10.850;2023-12-07T09:52:49;2.53;;;1.97;;
19364;SDS011;9818;48.382;10.850;2023-12-07T09:55:22;3.17;;;2.07;;
19364;SDS011;9818;48.382;10.850;2023-12-07T09:57:51;2.47;;;1.90;;
19364;SDS011;9818;48.382;10.850;2023-12-07T10:00:22;2.10;;;1.83;;
19364;SDS011;9818;48.382;10.850;2023-12-07T10:02:51;3.23;;;2.07;;
19364;SDS011;9818;48.382;10.850;2023-12-07T10:05:19;2.73;;;1.80;;
19364;SDS011;9818;48.382;10.850;2023-12-07T10:07:49;2.27;;;2.07;;
19364;SDS011;9818;48.382;10.850;2023-12-07T10:10:18;3.80;;;1.80;;
19364;SDS011;9818;48.382;10.850;2023-12-07T10:12:51;2.27;;;1.90;;
19364;SDS011;9818;48.382;10.850;2023-12-07T10:15:19;3.43;;;1.70;;
19364;SDS011;9818;48.382;10.850;2023-12-07T10:17:49;2.73;;;2.30;;
19364;SDS011;9818;48.382;10.850;2023-12-07T10:20:19;3.70;;;1.93;;
19364;SDS011;9818;48.382;10.850;2023-12-07T10:23:02;2.17;;;1.77;;
19364;SDS011;9818;48.382;10.850;2023-12-07T10:25:35;3.43;;;2.10;;
19364;SDS011;9818;48.382;10.850;2023-12-07T10:28:06;3.73;;;2.40;;
19364;SDS011;9818;48.382;10.850;2023-12-07T10:30:37;2.87;;;1.97;;
19364;SDS011;9818;48.382;10.850;2023-12-07T10:33:09;3.63;;;2.20;;
19364;SDS011;9818;48.382;10.850;2023-12-07T10:35:38;3.50;;;2.20;;
19364;SDS011;9818;48.382;10.850;2023-12-07T10:38:07;1.90;;;1.70;;
19364;SDS011;9818;48.382;10.850;2023-12-07T10:40:39;3.80;;;2.10;;
19364;SDS011;9818;48.382;10.850;2023-12-07T10:43:08;2.10;;;1.90;;
19364;SDS011;9818;48.382;10.850;2023-12-07T10:45:37;2.70;;;1.80;;
19364;SDS011;9818;48.382;10.850;2023-12-07T10:48:09;2.10;;;1.90;;
19364;SDS011;9818;48.382;10.850;2023-12-07T10:50:40;5.23;;;1.90;;
19364;SDS011;9818;48.382;10.850;2023-12-07T10:53:11;4.17;;;1.90;;
19364;SDS011;9818;48.382;10.850;2023-12-07T10:55:52;2.70;;;1.87;;
19364;SDS011;9818;48.382;10.850;2023-12-07T10:58:23;2.00;;;1.70;;
19364;SDS011;9818;48.382;10.850;2023-12-07T11:00:53;2.90;;;1.90;;
19364;SDS011;9818;48.382;10.850;2023-12-07T11:03:22;4.27;;;1.93;;
19364;SDS011;9818;48.382;10.850;2023-12-07T11:05:52;2.20;;;1.70;;
19364;SDS011;9818;48.382;10.850;2023-12-07T11:08:23;2.20;;;1.73;;
19364;SDS011;9818;48.382;10.850;2023-12-07T11:11:01;3.13;;;1.97;;
19364;SDS011;9818;48.382;10.850;2023-12-07T11:13:35;2.00;;;1.80;;
19364;SDS011;9818;48.382;10.850;2023-12-07T11:16:05;2.53;;;1.93;;
19364;SDS011;9818;48.382;10.850;2023-12-07T11:18:34;2.00;;;1.40;;
19364;SDS011;9818;48.382;10.850;2023-12-07T11:21:04;2.00;;;1.80;;
19364;SDS011;9818;48.382;10.850;2023-12-07T11:23:33;2.00;;;1.83;;
19364;SDS011;9818;48.382;10.850;2023-12-07T11:26:05;1.60;;;1.50;;
19364;SDS011;9818;48.382;10.850;2023-12-07T11:28:34;1.80;;;1.70;;
19364;SDS011;9818;48.382;10.850;2023-12-07T11:31:04;2.10;;;1.90;;
19364;SDS011;9818;48.382;10.850;2023-12-07T11:33:37;1.73;;;1.63;;
19364;SDS011;9818;48.382;10.850;2023-12-07T11:36:07;2.20;;;1.80;;
19364;SDS011;9818;48.382;10.850;2023-12-07T11:38:37;3.70;;;1.67;;
19364;SDS011;9818;48.382;10.850;2023-12-07T11:41:31;1.87;;;1.77;;
19364;SDS011;9818;48.382;10.850;2023-12-07T11:44:02;1.87;;;1.73;;
19364;SDS011;9818;48.382;10.850;2023-12-07T11:46:32;2.00;;;1.80;;
19364;SDS011;9818;48.382;10.850;2023-12-07T11:49:02;3.50;;;1.90;;
19364;SDS011;9818;48.382;10.850;2023-12-07T11:51:35;1.60;;;1.50;;
19364;SDS011;9818;48.382;10.850;2023-12-07T11:54:04;2.00;;;1.80;;
19364;SDS011;9818;48.382;10.850;2023-12-07T11:56:39;4.37;;;1.97;;
19364;SDS011;9818;48.382;10.850;2023-12-07T11:59:08;2.10;;;1.90;;
19364;SDS011;9818;48.382;10.850;2023-12-07T12:01:37;1.70;;;1.60;;
19364;SDS011;9818;48.382;10.850;2023-12-07T12:04:06;1.70;;;1.57;;
19364;SDS011;9818;48.382;10.850;2023-12-07T12:06:35;1.80;;;1.60;;
19364;SDS011;9818;48.382;10.850;2023-12-07T12:09:04;1.80;;;1.50;;
19364;SDS011;9818;48.382;10.850;2023-12-07T12:11:35;1.80;;;1.60;;
19364;SDS011;9818;48.382;10.850;2023-12-07T12:14:12;2.40;;;1.63;;
19364;SDS011;9818;48.382;10.850;2023-12-07T12:16:41;1.70;;;1.57;;
19364;SDS011;9818;48.382;10.850;2023-12-07T12:19:10;1.47;;;1.37;;
19364;SDS011;9818;48.382;10.850;2023-12-07T12:21:40;2.17;;;1.50;;
19364;SDS011;9818;48.382;10.850;2023-12-07T12:24:09;2.30;;;1.53;;
19364;SDS011;9818;48.382;10.850;2023-12-07T12:26:42;1.70;;;1.60;;
19364;SDS011;9818;48.382;10.850;2023-12-07T12:29:12;2.30;;;1.80;;
19364;SDS011;9818;48.382;10.850;2023-12-07T12:31:42;4.97;;;1.87;;
19364;SDS011;9818;48.382;10.850;2023-12-07T12:34:11;4.77;;;1.90;;
19364;SDS011;9818;48.382;10.850;2023-12-07T12:36:40;6.10;;;2.20;;
19364;SDS011;9818;48.382;10.850;2023-12-07T12:39:08;3.77;;;2.00;;
19364;SDS011;9818;48.382;10.850;2023-12-07T12:41:41;2.30;;;2.03;;
19364;SDS011;9818;48.382;10.850;2023-12-07T12:44:10;2.97;;;2.47;;
19364;SDS011;9818;48.382;10.850;2023-12-07T12:46:39;6.97;;;2.60;;
19364;SDS011;9818;48.382;10.850;2023-12-07T12:49:08;4.27;;;2.00;;
19364;SDS011;9818;48.382;10.850;2023-12-07T12:51:37;5.37;;;3.07;;
19364;SDS011;9818;48.382;10.850;2023-12-07T12:54:06;11.83;;;6.63;;
19364;SDS011;9818;48.382;10.850;2023-12-07T12:56:36;11.03;;;5.27;;
19364;SDS011;9818;48.382;10.850;2023-12-07T12:59:08;11.80;;;5.37;;
19364;SDS011;9818;48.382;10.850;2023-12-07T13:01:37;11.93;;;4.63;;
19364;SDS011;9818;48.382;10.850;2023-12-07T13:04:05;10.33;;;4.63;;
19364;SDS011;9818;48.382;10.850;2023-12-07T13:06:34;10.53;;;6.83;;
19364;SDS011;9818;48.382;10.850;2023-12-07T13:09:04;8.30;;;5.47;;
19364;SDS011;9818;48.382;10.850;2023-12-07T13:11:32;10.23;;;5.50;;
19364;SDS011;9818;48.382;10.850;2023-12-07T13:14:01;9.43;;;5.10;;
19364;SDS011;9818;48.382;10.850;2023-12-07T13:16:35;8.57;;;4.87;;
19364;SDS011;9818;48.382;10.850;2023-12-07T13:19:04;9.90;;;5.33;;
19364;SDS011;9818;48.382;10.850;2023-12-07T13:21:32;10.37;;;4.90;;
19364;SDS011;9818;48.382;10.850;2023-12-07T13:24:01;15.93;;;4.43;;
19364;SDS011;9818;48.382;10.850;2023-12-07T13:26:31;11.47;;;4.93;;
19364;SDS011;9818;48.382;10.850;2023-12-07T13:29:00;9.80;;;4.13;;
19364;SDS011;9818;48.382;10.850;2023-12-07T13:31:28;12.77;;;4.60;;
19364;SDS011;9818;48.382;10.850;2023-12-07T13:34:00;12.03;;;4.23;;
19364;SDS011;9818;48.382;10.850;2023-12-07T13:36:29;4.20;;;3.67;;
19364;SDS011;9818;48.382;10.850;2023-12-07T13:38:59;5.80;;;3.47;;
19364;SDS011;9818;48.382;10.850;2023-12-07T13:41:28;6.97;;;3.13;;
19364;SDS011;9818;48.382;10.850;2023-12-07T13:43:58;4.97;;;2.60;;
19364;SDS011;9818;48.382;10.850;2023-12-07T13:46:27;6.27;;;3.07;;
19364;SDS011;9818;48.382;10.850;2023-12-07T13:48:56;6.50;;;3.90;;
19364;SDS011;9818;48.382;10.850;2023-12-07T13:51:29;9.10;;;4.07;;
19364;SDS011;9818;48.382;10.850;2023-12-07T13:53:59;8.80;;;3.87;;
19364;SDS011;9818;48.382;10.850;2023-12-07T13:56:27;9.07;;;2.73;;
19364;SDS011;9818;48.382;10.850;2023-12-07T13:58:56;5.23;;;3.07;;
19364;SDS011;9818;48.382;10.850;2023-12-07T14:01:25;6.63;;;3.03;;
19364;SDS011;9818;48.382;10.850;2023-12-07T14:03:54;10.20;;;3.23;;
19364;SDS011;9818;48.382;10.850;2023-12-07T14:06:26;7.10;;;2.80;;
19364;SDS011;9818;48.382;10.850;2023-12-07T14:08:54;6.90;;;2.90;;
19364;SDS011;9818;48.382;10.850;2023-12-07T14:11:24;7.17;;;2.87;;
19364;SDS011;9818;48.382;10.850;2023-12-07T14:13:53;4.87;;;2.53;;
19364;SDS011;9818;48.382;10.850;2023-12-07T14:16:22;7.20;;;2.60;;
19364;SDS011;9818;48.382;10.850;2023-12-07T14:18:50;7.00;;;2.80;;
19364;SDS011;9818;48.382;10.850;2023-12-07T14:21:19;5.47;;;2.43;;
19364;SDS011;9818;48.382;10.850;2023-12-07T14:23:52;7.17;;;2.60;;
19364;SDS011;9818;48.382;10.850;2023-12-07T14:26:23;11.33;;;2.73;;
19364;SDS011;9818;48.382;10.850;2023-12-07T14:28:52;4.57;;;2.50;;
19364;SDS011;9818;48.382;10.850;2023-12-07T14:31:21;4.53;;;2.60;;
19364;SDS011;9818;48.382;10.850;2023-12-07T14:33:50;7.50;;;2.97;;
19364;SDS011;9818;48.382;10.850;2023-12-07T14:36:20;6.30;;;2.40;;
19364;SDS011;9818;48.382;10.850;2023-12-07T14:38:52;8.03;;;2.53;;
19364;SDS011;9818;48.382;10.850;2023-12-07T14:41:20;5.63;;;2.23;;
19364;SDS011;9818;48.382;10.850;2023-12-07T14:43:50;6.07;;;2.57;;
19364;SDS011;9818;48.382;10.850;2023-12-07T14:46:18;7.70;;;2.60;;
19364;SDS011;9818;48.382;10.850;2023-12-07T14:48:47;4.53;;;2.67;;
19364;SDS011;9818;48.382;10.850;2023-12-07T14:51:17;5.40;;;2.53;;
19364;SDS011;9818;48.382;10.850;2023-12-07T14:53:46;8.67;;;2.47;;
19364;SDS011;9818;48.382;10.850;2023-12-07T14:56:17;6.67;;;2.40;;
19364;SDS011;9818;48.382;10.850;2023-12-07T14:58:47;5.07;;;2.40;;
19364;SDS011;9818;48.382;10.850;2023-12-07T15:01:16;5.83;;;2.60;;
19364;SDS011;9818;48.382;10.850;2023-12-07T15:03:45;7.27;;;2.70;;